sensor_id;sensor_type;location;lat;lon;timestamp;temperature;humidity
6518;DHT22;3292;48.944;9.240;2023-02-24T00:01:00;8.80;99.90
6518;DHT22;3292;48.944;9.240;2023-02-24T00:03:34;8.80;99.90
6518;DHT22;3292;48.944;9.240;2023-02-24T00:06:02;8.80;99.90
6518;DHT22;3292;48.944;9.240;2023-02-24T00:08:34;8.80;99.90
6518;DHT22;3292;48.944;9.240;2023-02-24T00:11:08;8.80;99.90
6518;DHT22;3292;48.944;9.240;2023-02-24T00:13:35;8.80;99.90
6518;DHT22;3292;48.944;9.240;2023-02-24T00:16:03;8.80;99.90
6518;DHT22;3292;48.944;9.240;2023-02-24T00:18:31;8.80;99.90
6518;DHT22;3292;48.944;9.240;2023-02-24T00:21:02;8.80;99.90
6518;DHT22;3292;48.944;9.240;2023-02-24T00:23:30;8.80;99.90
6518;DHT22;3292;48.944;9.240;2023-02-24T00:25:59;8.70;99.90
6518;DHT22;3292;48.944;9.240;2023-02-24T00:28:28;8.70;99.90
6518;DHT22;3292;48.944;9.240;2023-02-24T00:30:55;8.70;99.90
6518;DHT22;3292;48.944;9.240;2023-02-24T00:33:22;8.70;99.90
6518;DHT22;3292;48.944;9.240;2023-02-24T00:35:50;8.70;99.90
6518;DHT22;3292;48.944;9.240;2023-02-24T00:38:17;8.70;99.90
6518;DHT22;3292;48.944;9.240;2023-02-24T00:40:44;8.70;99.90
6518;DHT22;3292;48.944;9.240;2023-02-24T00:43:11;8.70;99.90
6518;DHT22;3292;48.944;9.240;2023-02-24T00:45:39;8.70;99.90
6518;DHT22;3292;48.944;9.240;2023-02-24T00:48:06;8.60;99.90
6518;DHT22;3292;48.944;9.240;2023-02-24T00:50:35;8.60;99.90
6518;DHT22;3292;48.944;9.240;2023-02-24T00:53:04;8.60;99.90
6518;DHT22;3292;48.944;9.240;2023-02-24T00:55:31;8.50;99.90
6518;DHT22;3292;48.944;9.240;2023-02-24T00:58:01;8.50;99.90
6518;DHT22;3292;48.944;9.240;2023-02-24T01:00:28;8.50;99.90
6518;DHT22;3292;48.944;9.240;2023-02-24T01:03:01;8.50;99.90
6518;DHT22;3292;48.944;9.240;2023-02-24T01:05:28;8.50;99.90
6518;DHT22;3292;48.944;9.240;2023-02-24T01:07:55;8.50;99.90
6518;DHT22;3292;48.944;9.240;2023-02-24T01:10:22;8.50;99.90
6518;DHT22;3292;48.944;9.240;2023-02-24T01:12:51;8.40;99.90
6518;DHT22;3292;48.944;9.240;2023-02-24T01:15:21;8.40;99.90
6518;DHT22;3292;48.944;9.240;2023-02-24T01:18:01;8.40;99.90
6518;DHT22;3292;48.944;9.240;2023-02-24T01:20:37;8.40;99.90
6518;DHT22;3292;48.944;9.240;2023-02-24T01:23:10;8.40;99.90
6518;DHT22;3292;48.944;9.240;2023-02-24T01:25:49;8.40;99.90
6518;DHT22;3292;48.944;9.240;2023-02-24T01:28:23;8.40;99.90
6518;DHT22;3292;48.944;9.240;2023-02-24T01:30:51;8.30;99.90
6518;DHT22;3292;48.944;9.240;2023-02-24T01:33:22;8.30;99.90
6518;DHT22;3292;48.944;9.240;2023-02-24T01:35:54;8.30;99.90
6518;DHT22;3292;48.944;9.240;2023-02-24T01:38:41;8.30;99.90
6518;DHT22;3292;48.944;9.240;2023-02-24T01:41:10;8.30;99.90
6518;DHT22;3292;48.944;9.240;2023-02-24T01:43:59;8.30;99.90
6518;DHT22;3292;48.944;9.240;2023-02-24T01:46:33;8.30;99.90
6518;DHT22;3292;48.944;9.240;2023-02-24T01:49:10;8.30;99.90
6518;DHT22;3292;48.944;9.240;2023-02-24T01:51:45;8.40;99.90
6518;DHT22;3292;48.944;9.240;2023-02-24T01:54:23;8.40;99.90
6518;DHT22;3292;48.944;9.240;2023-02-24T01:57:18;8.40;99.90
6518;DHT22;3292;48.944;9.240;2023-02-24T01:59:54;8.40;99.90
6518;DHT22;3292;48.944;9.240;2023-02-24T02:02:27;8.30;99.90
6518;DHT22;3292;48.944;9.240;2023-02-24T02:05:19;8.40;99.90
6518;DHT22;3292;48.944;9.240;2023-02-24T02:08:05;8.30;99.90
6518;DHT22;3292;48.944;9.240;2023-02-24T02:10:44;8.40;99.90
6518;DHT22;3292;48.944;9.240;2023-02-24T02:13:34;8.40;99.90
6518;DHT22;3292;48.944;9.240;2023-02-24T02:19:51;8.40;99.90
6518;DHT22;3292;48.944;9.240;2023-02-24T02:29:22;8.30;99.90
6518;DHT22;3292;48.944;9.240;2023-02-24T02:32:28;8.30;99.90
6518;DHT22;3292;48.944;9.240;2023-02-24T02:35:14;8.30;99.90
6518;DHT22;3292;48.944;9.240;2023-02-24T02:37:53;8.30;99.90
6518;DHT22;3292;48.944;9.240;2023-02-24T02:40:36;8.20;99.90
6518;DHT22;3292;48.944;9.240;2023-02-24T02:43:25;8.20;99.90
6518;DHT22;3292;48.944;9.240;2023-02-24T02:46:04;8.20;99.90
6518;DHT22;3292;48.944;9.240;2023-02-24T02:48:46;8.20;99.90
6518;DHT22;3292;48.944;9.240;2023-02-24T02:51:29;8.20;99.90
6518;DHT22;3292;48.944;9.240;2023-02-24T02:54:09;8.20;99.90
6518;DHT22;3292;48.944;9.240;2023-02-24T02:56:58;8.20;99.90
6518;DHT22;3292;48.944;9.240;2023-02-24T02:59:43;8.20;99.90
6518;DHT22;3292;48.944;9.240;2023-02-24T03:02:22;8.20;99.90
6518;DHT22;3292;48.944;9.240;2023-02-24T03:04:55;8.20;99.90
6518;DHT22;3292;48.944;9.240;2023-02-24T03:07:28;8.20;99.90
6518;DHT22;3292;48.944;9.240;2023-02-24T03:09:59;8.20;99.90
6518;DHT22;3292;48.944;9.240;2023-02-24T03:12:29;8.10;99.90
6518;DHT22;3292;48.944;9.240;2023-02-24T03:14:58;8.10;99.90
6518;DHT22;3292;48.944;9.240;2023-02-24T03:17:29;8.20;99.90
6518;DHT22;3292;48.944;9.240;2023-02-24T03:20:00;8.10;99.90
6518;DHT22;3292;48.944;9.240;2023-02-24T03:22:44;8.10;99.90
6518;DHT22;3292;48.944;9.240;2023-02-24T03:25:14;8.10;99.90
6518;DHT22;3292;48.944;9.240;2023-02-24T03:27:46;8.10;99.90
6518;DHT22;3292;48.944;9.240;2023-02-24T03:30:17;8.00;99.90
6518;DHT22;3292;48.944;9.240;2023-02-24T03:32:51;8.10;99.90
6518;DHT22;3292;48.944;9.240;2023-02-24T03:35:23;8.00;99.90
6518;DHT22;3292;48.944;9.240;2023-02-24T03:37:52;8.00;99.90
6518;DHT22;3292;48.944;9.240;2023-02-24T03:40:20;8.00;99.90
6518;DHT22;3292;48.944;9.240;2023-02-24T03:42:57;8.00;99.90
6518;DHT22;3292;48.944;9.240;2023-02-24T03:45:30;8.10;99.90
6518;DHT22;3292;48.944;9.240;2023-02-24T03:47:59;8.00;99.90
6518;DHT22;3292;48.944;9.240;2023-02-24T03:50:27;8.00;99.90
6518;DHT22;3292;48.944;9.240;2023-02-24T03:53:04;8.00;99.90
6518;DHT22;3292;48.944;9.240;2023-02-24T03:55:39;8.00;99.90
6518;DHT22;3292;48.944;9.240;2023-02-24T03:58:16;8.00;99.90
6518;DHT22;3292;48.944;9.240;2023-02-24T04:00:49;8.00;99.90
6518;DHT22;3292;48.944;9.240;2023-02-24T04:03:25;8.00;99.90
6518;DHT22;3292;48.944;9.240;2023-02-24T04:06:00;8.00;99.90
6518;DHT22;3292;48.944;9.240;2023-02-24T04:08:40;8.00;99.90
6518;DHT22;3292;48.944;9.240;2023-02-24T04:11:13;8.00;99.90
6518;DHT22;3292;48.944;9.240;2023-02-24T04:13:48;7.90;99.90
6518;DHT22;3292;48.944;9.240;2023-02-24T04:16:23;7.90;99.90
6518;DHT22;3292;48.944;9.240;2023-02-24T04:19:03;7.90;99.90
6518;DHT22;3292;48.944;9.240;2023-02-24T04:21:36;7.90;99.90
6518;DHT22;3292;48.944;9.240;2023-02-24T04:24:10;7.90;99.90
6518;DHT22;3292;48.944;9.240;2023-02-24T04:26:54;7.90;99.90
6518;DHT22;3292;48.944;9.240;2023-02-24T04:29:58;7.90;99.90
6518;DHT22;3292;48.944;9.240;2023-02-24T04:32:44;7.90;99.90
6518;DHT22;3292;48.944;9.240;2023-02-24T04:35:14;7.90;99.90
6518;DHT22;3292;48.944;9.240;2023-02-24T04:38:01;7.90;99.90
6518;DHT22;3292;48.944;9.240;2023-02-24T04:40:55;7.90;99.90
6518;DHT22;3292;48.944;9.240;2023-02-24T04:43:35;7.90;99.90
6518;DHT22;3292;48.944;9.240;2023-02-24T04:46:13;7.90;99.90
6518;DHT22;3292;48.944;9.240;2023-02-24T04:49:05;8.00;99.90
6518;DHT22;3292;48.944;9.240;2023-02-24T04:51:41;7.90;99.90
6518;DHT22;3292;48.944;9.240;2023-02-24T04:54:24;7.90;99.90
6518;DHT22;3292;48.944;9.240;2023-02-24T04:57:03;7.90;99.90
6518;DHT22;3292;48.944;9.240;2023-02-24T04:59:35;7.90;99.90
6518;DHT22;3292;48.944;9.240;2023-02-24T05:02:06;7.90;99.90
6518;DHT22;3292;48.944;9.240;2023-02-24T05:04:38;7.90;99.90
6518;DHT22;3292;48.944;9.240;2023-02-24T05:07:06;7.90;99.90
6518;DHT22;3292;48.944;9.240;2023-02-24T05:09:44;7.90;99.90
6518;DHT22;3292;48.944;9.240;2023-02-24T05:12:15;7.90;99.90
6518;DHT22;3292;48.944;9.240;2023-02-24T05:14:45;7.90;99.90
6518;DHT22;3292;48.944;9.240;2023-02-24T05:17:16;7.80;99.90
6518;DHT22;3292;48.944;9.240;2023-02-24T05:19:44;7.80;99.90
6518;DHT22;3292;48.944;9.240;2023-02-24T05:22:38;7.80;99.90
6518;DHT22;3292;48.944;9.240;2023-02-24T05:28:14;7.70;99.90
6518;DHT22;3292;48.944;9.240;2023-02-24T05:31:10;7.70;99.90
6518;DHT22;3292;48.944;9.240;2023-02-24T05:33:48;7.70;99.90
6518;DHT22;3292;48.944;9.240;2023-02-24T05:36:25;7.60;99.90
6518;DHT22;3292;48.944;9.240;2023-02-24T05:38:57;7.60;99.90
6518;DHT22;3292;48.944;9.240;2023-02-24T05:41:35;7.60;99.90
6518;DHT22;3292;48.944;9.240;2023-02-24T05:44:10;7.60;99.90
6518;DHT22;3292;48.944;9.240;2023-02-24T05:46:42;7.60;99.90
6518;DHT22;3292;48.944;9.240;2023-02-24T05:49:23;7.60;99.90
6518;DHT22;3292;48.944;9.240;2023-02-24T05:51:57;7.60;99.90
6518;DHT22;3292;48.944;9.240;2023-02-24T05:54:35;7.60;99.90
6518;DHT22;3292;48.944;9.240;2023-02-24T05:57:07;7.60;99.90
6518;DHT22;3292;48.944;9.240;2023-02-24T05:59:43;7.60;99.90
6518;DHT22;3292;48.944;9.240;2023-02-24T06:02:13;7.60;99.90
6518;DHT22;3292;48.944;9.240;2023-02-24T06:04:41;7.60;99.90
6518;DHT22;3292;48.944;9.240;2023-02-24T06:07:18;7.60;99.90
6518;DHT22;3292;48.944;9.240;2023-02-24T06:09:45;7.60;99.90
6518;DHT22;3292;48.944;9.240;2023-02-24T06:12:25;7.60;99.90
6518;DHT22;3292;48.944;9.240;2023-02-24T06:14:55;7.60;99.90
6518;DHT22;3292;48.944;9.240;2023-02-24T06:17:35;7.60;99.90
6518;DHT22;3292;48.944;9.240;2023-02-24T06:20:27;7.60;99.90
6518;DHT22;3292;48.944;9.240;2023-02-24T06:22:59;7.50;99.90
6518;DHT22;3292;48.944;9.240;2023-02-24T06:25:29;7.50;99.90
6518;DHT22;3292;48.944;9.240;2023-02-24T06:28:06;7.50;99.90
6518;DHT22;3292;48.944;9.240;2023-02-24T06:31:03;7.50;99.90
6518;DHT22;3292;48.944;9.240;2023-02-24T06:33:34;7.50;99.90
6518;DHT22;3292;48.944;9.240;2023-02-24T06:36:07;7.40;99.90
6518;DHT22;3292;48.944;9.240;2023-02-24T06:38:35;7.30;99.90
6518;DHT22;3292;48.944;9.240;2023-02-24T06:41:07;7.30;99.90
6518;DHT22;3292;48.944;9.240;2023-02-24T06:43:37;7.30;99.90
6518;DHT22;3292;48.944;9.240;2023-02-24T06:46:10;7.20;99.90
6518;DHT22;3292;48.944;9.240;2023-02-24T06:48:40;7.20;99.90
6518;DHT22;3292;48.944;9.240;2023-02-24T06:51:14;7.20;99.90
6518;DHT22;3292;48.944;9.240;2023-02-24T06:53:44;7.20;99.90
6518;DHT22;3292;48.944;9.240;2023-02-24T06:56:16;7.20;99.90
6518;DHT22;3292;48.944;9.240;2023-02-24T06:58:48;7.20;99.90
6518;DHT22;3292;48.944;9.240;2023-02-24T07:01:22;7.20;99.90
6518;DHT22;3292;48.944;9.240;2023-02-24T07:03:53;7.20;99.90
6518;DHT22;3292;48.944;9.240;2023-02-24T07:06:53;7.20;99.90
6518;DHT22;3292;48.944;9.240;2023-02-24T07:09:30;7.20;99.90
6518;DHT22;3292;48.944;9.240;2023-02-24T07:12:11;7.20;99.90
6518;DHT22;3292;48.944;9.240;2023-02-24T07:14:51;7.20;99.90
6518;DHT22;3292;48.944;9.240;2023-02-24T07:17:22;7.20;99.90
6518;DHT22;3292;48.944;9.240;2023-02-24T07:19:54;7.20;99.90
6518;DHT22;3292;48.944;9.240;2023-02-24T07:22:23;7.20;99.90
6518;DHT22;3292;48.944;9.240;2023-02-24T07:24:51;7.20;99.90
6518;DHT22;3292;48.944;9.240;2023-02-24T07:27:24;7.30;99.90
6518;DHT22;3292;48.944;9.240;2023-02-24T07:29:53;7.30;99.90
6518;DHT22;3292;48.944;9.240;2023-02-24T07:32:22;7.30;99.90
6518;DHT22;3292;48.944;9.240;2023-02-24T07:34:57;7.30;99.90
6518;DHT22;3292;48.944;9.240;2023-02-24T07:37:28;7.30;99.90
6518;DHT22;3292;48.944;9.240;2023-02-24T07:39:56;7.30;99.90
6518;DHT22;3292;48.944;9.240;2023-02-24T07:42:27;7.30;99.90
6518;DHT22;3292;48.944;9.240;2023-02-24T07:45:08;7.30;99.90
6518;DHT22;3292;48.944;9.240;2023-02-24T07:47:39;7.30;99.90
6518;DHT22;3292;48.944;9.240;2023-02-24T07:50:11;7.30;99.90
6518;DHT22;3292;48.944;9.240;2023-02-24T07:52:44;7.30;99.90
6518;DHT22;3292;48.944;9.240;2023-02-24T07:55:17;7.30;99.90
6518;DHT22;3292;48.944;9.240;2023-02-24T07:57:46;7.20;99.90
6518;DHT22;3292;48.944;9.240;2023-02-24T08:00:17;7.20;99.90
6518;DHT22;3292;48.944;9.240;2023-02-24T08:02:49;7.20;99.90
6518;DHT22;3292;48.944;9.240;2023-02-24T08:05:17;7.20;99.90
6518;DHT22;3292;48.944;9.240;2023-02-24T08:07:55;7.20;99.90
6518;DHT22;3292;48.944;9.240;2023-02-24T08:10:28;7.20;99.90
6518;DHT22;3292;48.944;9.240;2023-02-24T08:13:04;7.20;99.90
6518;DHT22;3292;48.944;9.240;2023-02-24T08:15:34;7.30;99.90
6518;DHT22;3292;48.944;9.240;2023-02-24T08:18:06;7.30;99.90
6518;DHT22;3292;48.944;9.240;2023-02-24T08:20:33;7.30;99.90
6518;DHT22;3292;48.944;9.240;2023-02-24T08:23:16;7.30;99.90
6518;DHT22;3292;48.944;9.240;2023-02-24T08:26:07;7.30;99.90
6518;DHT22;3292;48.944;9.240;2023-02-24T08:28:59;7.30;99.90
6518;DHT22;3292;48.944;9.240;2023-02-24T08:31:38;7.30;99.90
6518;DHT22;3292;48.944;9.240;2023-02-24T08:34:09;7.30;99.90
6518;DHT22;3292;48.944;9.240;2023-02-24T08:36:40;7.30;99.90
6518;DHT22;3292;48.944;9.240;2023-02-24T08:39:15;7.30;99.90
6518;DHT22;3292;48.944;9.240;2023-02-24T08:41:49;7.30;99.90
6518;DHT22;3292;48.944;9.240;2023-02-24T08:44:22;7.30;99.90
6518;DHT22;3292;48.944;9.240;2023-02-24T08:46:54;7.40;99.90
6518;DHT22;3292;48.944;9.240;2023-02-24T08:49:24;7.40;99.90
6518;DHT22;3292;48.944;9.240;2023-02-24T08:51:58;7.40;99.90
6518;DHT22;3292;48.944;9.240;2023-02-24T08:54:32;7.50;99.90
6518;DHT22;3292;48.944;9.240;2023-02-24T08:57:04;7.50;99.90
6518;DHT22;3292;48.944;9.240;2023-02-24T08:59:35;7.50;99.90
6518;DHT22;3292;48.944;9.240;2023-02-24T09:02:18;7.60;99.90
6518;DHT22;3292;48.944;9.240;2023-02-24T09:05:04;7.50;99.90
6518;DHT22;3292;48.944;9.240;2023-02-24T09:07:39;7.50;99.90
6518;DHT22;3292;48.944;9.240;2023-02-24T09:10:19;7.60;99.90
6518;DHT22;3292;48.944;9.240;2023-02-24T09:12:52;7.60;99.90
6518;DHT22;3292;48.944;9.240;2023-02-24T09:15:25;7.60;99.90
6518;DHT22;3292;48.944;9.240;2023-02-24T09:18:10;7.60;99.90
6518;DHT22;3292;48.944;9.240;2023-02-24T09:20:47;7.60;99.90
6518;DHT22;3292;48.944;9.240;2023-02-24T09:23:46;7.60;99.90
6518;DHT22;3292;48.944;9.240;2023-02-24T09:26:17;7.60;99.90
6518;DHT22;3292;48.944;9.240;2023-02-24T09:28:50;7.60;99.90
6518;DHT22;3292;48.944;9.240;2023-02-24T09:32:02;7.60;99.90
6518;DHT22;3292;48.944;9.240;2023-02-24T09:34:43;7.60;99.90
6518;DHT22;3292;48.944;9.240;2023-02-24T09:37:14;7.60;99.90
6518;DHT22;3292;48.944;9.240;2023-02-24T09:42:57;7.70;99.90
6518;DHT22;3292;48.944;9.240;2023-02-24T09:45:33;7.70;99.90
6518;DHT22;3292;48.944;9.240;2023-02-24T09:48:30;7.70;99.90
6518;DHT22;3292;48.944;9.240;2023-02-24T09:51:21;7.70;99.90
6518;DHT22;3292;48.944;9.240;2023-02-24T09:54:14;7.80;99.90
6518;DHT22;3292;48.944;9.240;2023-02-24T09:56:55;7.80;99.90
6518;DHT22;3292;48.944;9.240;2023-02-24T09:59:44;7.80;99.90
6518;DHT22;3292;48.944;9.240;2023-02-24T10:02:36;7.80;99.90
6518;DHT22;3292;48.944;9.240;2023-02-24T10:05:17;7.80;99.90
6518;DHT22;3292;48.944;9.240;2023-02-24T10:07:48;7.80;99.90
6518;DHT22;3292;48.944;9.240;2023-02-24T10:10:21;7.80;99.90
6518;DHT22;3292;48.944;9.240;2023-02-24T10:12:57;7.80;99.90
6518;DHT22;3292;48.944;9.240;2023-02-24T10:15:29;7.80;99.90
6518;DHT22;3292;48.944;9.240;2023-02-24T10:18:26;7.80;99.90
6518;DHT22;3292;48.944;9.240;2023-02-24T10:20:58;7.80;99.90
6518;DHT22;3292;48.944;9.240;2023-02-24T10:23:29;7.80;99.90
6518;DHT22;3292;48.944;9.240;2023-02-24T10:26:04;7.80;99.90
6518;DHT22;3292;48.944;9.240;2023-02-24T10:28:40;7.90;99.90
6518;DHT22;3292;48.944;9.240;2023-02-24T10:31:11;7.90;99.90
6518;DHT22;3292;48.944;9.240;2023-02-24T10:33:49;7.90;99.90
6518;DHT22;3292;48.944;9.240;2023-02-24T10:36:19;7.90;99.90
6518;DHT22;3292;48.944;9.240;2023-02-24T10:38:51;8.00;99.90
6518;DHT22;3292;48.944;9.240;2023-02-24T10:41:22;8.00;99.90
6518;DHT22;3292;48.944;9.240;2023-02-24T10:43:53;8.00;99.90
6518;DHT22;3292;48.944;9.240;2023-02-24T10:46:23;8.00;99.90
6518;DHT22;3292;48.944;9.240;2023-02-24T10:48:53;8.00;99.90
6518;DHT22;3292;48.944;9.240;2023-02-24T10:51:28;8.00;99.90
6518;DHT22;3292;48.944;9.240;2023-02-24T10:54:11;8.00;99.90
6518;DHT22;3292;48.944;9.240;2023-02-24T10:57:03;8.00;99.90
6518;DHT22;3292;48.944;9.240;2023-02-24T10:59:50;8.00;99.90
6518;DHT22;3292;48.944;9.240;2023-02-24T11:02:37;8.00;99.90
6518;DHT22;3292;48.944;9.240;2023-02-24T11:05:21;8.00;99.90
6518;DHT22;3292;48.944;9.240;2023-02-24T11:08:11;8.00;99.90
6518;DHT22;3292;48.944;9.240;2023-02-24T11:10:50;8.00;99.90
6518;DHT22;3292;48.944;9.240;2023-02-24T11:13:33;8.00;99.90
6518;DHT22;3292;48.944;9.240;2023-02-24T11:16:19;8.10;99.90
6518;DHT22;3292;48.944;9.240;2023-02-24T11:19:05;8.10;99.90
6518;DHT22;3292;48.944;9.240;2023-02-24T11:21:32;8.00;99.90
6518;DHT22;3292;48.944;9.240;2023-02-24T11:23:59;8.00;99.90
6518;DHT22;3292;48.944;9.240;2023-02-24T11:26:33;8.10;99.90
6518;DHT22;3292;48.944;9.240;2023-02-24T11:29:20;8.10;99.90
6518;DHT22;3292;48.944;9.240;2023-02-24T11:32:03;8.10;99.90
6518;DHT22;3292;48.944;9.240;2023-02-24T11:34:40;8.20;99.90
6518;DHT22;3292;48.944;9.240;2023-02-24T11:37:24;8.20;99.90
6518;DHT22;3292;48.944;9.240;2023-02-24T11:39:58;8.30;99.90
6518;DHT22;3292;48.944;9.240;2023-02-24T11:42:30;8.30;99.90
6518;DHT22;3292;48.944;9.240;2023-02-24T11:45:02;8.40;99.90
6518;DHT22;3292;48.944;9.240;2023-02-24T11:47:35;8.40;99.90
6518;DHT22;3292;48.944;9.240;2023-02-24T11:52:57;8.50;99.90
6518;DHT22;3292;48.944;9.240;2023-02-24T11:55:28;8.60;99.90
6518;DHT22;3292;48.944;9.240;2023-02-24T11:58:02;8.60;99.90
6518;DHT22;3292;48.944;9.240;2023-02-24T12:00:34;8.60;99.90
6518;DHT22;3292;48.944;9.240;2023-02-24T12:03:07;8.60;99.90
6518;DHT22;3292;48.944;9.240;2023-02-24T12:05:41;8.70;99.90
6518;DHT22;3292;48.944;9.240;2023-02-24T12:08:12;8.70;99.90
6518;DHT22;3292;48.944;9.240;2023-02-24T12:10:46;8.80;99.90
6518;DHT22;3292;48.944;9.240;2023-02-24T12:13:20;9.00;99.90
6518;DHT22;3292;48.944;9.240;2023-02-24T12:15:54;9.20;99.90
6518;DHT22;3292;48.944;9.240;2023-02-24T12:18:25;9.20;99.90
6518;DHT22;3292;48.944;9.240;2023-02-24T12:20:58;9.20;99.90
6518;DHT22;3292;48.944;9.240;2023-02-24T12:23:30;9.20;99.90
6518;DHT22;3292;48.944;9.240;2023-02-24T12:26:08;9.20;99.90
6518;DHT22;3292;48.944;9.240;2023-02-24T12:29:03;9.20;99.90
6518;DHT22;3292;48.944;9.240;2023-02-24T12:31:42;9.30;99.90
6518;DHT22;3292;48.944;9.240;2023-02-24T12:34:25;9.20;99.90
6518;DHT22;3292;48.944;9.240;2023-02-24T12:37:14;9.30;99.90
6518;DHT22;3292;48.944;9.240;2023-02-24T12:39:48;9.30;99.90
6518;DHT22;3292;48.944;9.240;2023-02-24T12:42:24;9.40;99.90
6518;DHT22;3292;48.944;9.240;2023-02-24T12:44:58;9.40;99.90
6518;DHT22;3292;48.944;9.240;2023-02-24T12:47:40;9.60;99.90
6518;DHT22;3292;48.944;9.240;2023-02-24T12:50:20;9.60;99.90
6518;DHT22;3292;48.944;9.240;2023-02-24T12:52:53;9.50;99.90
6518;DHT22;3292;48.944;9.240;2023-02-24T12:55:27;9.50;99.90
6518;DHT22;3292;48.944;9.240;2023-02-24T12:58:03;9.50;99.90
6518;DHT22;3292;48.944;9.240;2023-02-24T13:00:38;9.60;99.90
6518;DHT22;3292;48.944;9.240;2023-02-24T13:03:20;9.60;99.90
6518;DHT22;3292;48.944;9.240;2023-02-24T13:05:54;9.60;99.90
6518;DHT22;3292;48.944;9.240;2023-02-24T13:08:33;9.60;99.90
6518;DHT22;3292;48.944;9.240;2023-02-24T13:11:06;9.70;99.90
6518;DHT22;3292;48.944;9.240;2023-02-24T13:13:42;9.60;99.90
6518;DHT22;3292;48.944;9.240;2023-02-24T13:16:25;9.60;99.90
6518;DHT22;3292;48.944;9.240;2023-02-24T13:19:05;9.60;99.90
6518;DHT22;3292;48.944;9.240;2023-02-24T13:21:37;9.60;99.90
6518;DHT22;3292;48.944;9.240;2023-02-24T13:24:15;9.60;99.90
6518;DHT22;3292;48.944;9.240;2023-02-24T13:26:54;9.60;99.90
6518;DHT22;3292;48.944;9.240;2023-02-24T13:29:47;9.60;99.90
6518;DHT22;3292;48.944;9.240;2023-02-24T13:32:29;9.60;99.90
6518;DHT22;3292;48.944;9.240;2023-02-24T13:35:02;9.70;99.90
6518;DHT22;3292;48.944;9.240;2023-02-24T13:37:34;9.70;99.90
6518;DHT22;3292;48.944;9.240;2023-02-24T13:42:58;9.60;99.90
6518;DHT22;3292;48.944;9.240;2023-02-24T13:45:28;9.60;99.90
6518;DHT22;3292;48.944;9.240;2023-02-24T13:51:09;9.60;99.90
6518;DHT22;3292;48.944;9.240;2023-02-24T13:54:02;9.50;99.90
6518;DHT22;3292;48.944;9.240;2023-02-24T13:56:38;9.50;99.90
6518;DHT22;3292;48.944;9.240;2023-02-24T13:59:35;9.50;99.90
6518;DHT22;3292;48.944;9.240;2023-02-24T14:02:13;9.50;99.90
6518;DHT22;3292;48.944;9.240;2023-02-24T14:04:54;9.50;99.90
6518;DHT22;3292;48.944;9.240;2023-02-24T14:07:27;9.50;99.90
6518;DHT22;3292;48.944;9.240;2023-02-24T14:10:17;9.50;99.90
6518;DHT22;3292;48.944;9.240;2023-02-24T14:13:13;9.50;99.90
6518;DHT22;3292;48.944;9.240;2023-02-24T14:15:45;9.50;99.90
6518;DHT22;3292;48.944;9.240;2023-02-24T14:18:24;9.50;99.90
6518;DHT22;3292;48.944;9.240;2023-02-24T14:20:56;9.50;99.90
6518;DHT22;3292;48.944;9.240;2023-02-24T14:23:30;9.40;99.90
6518;DHT22;3292;48.944;9.240;2023-02-24T14:26:10;9.30;99.90
6518;DHT22;3292;48.944;9.240;2023-02-24T14:28:52;9.40;99.90
6518;DHT22;3292;48.944;9.240;2023-02-24T14:31:29;9.30;99.90
6518;DHT22;3292;48.944;9.240;2023-02-24T14:33:58;9.30;99.90
6518;DHT22;3292;48.944;9.240;2023-02-24T14:36:29;9.30;99.90
6518;DHT22;3292;48.944;9.240;2023-02-24T14:39:06;9.30;99.90
6518;DHT22;3292;48.944;9.240;2023-02-24T14:41:34;9.30;99.90
6518;DHT22;3292;48.944;9.240;2023-02-24T14:44:07;9.20;99.90
6518;DHT22;3292;48.944;9.240;2023-02-24T14:46:48;9.20;99.90
6518;DHT22;3292;48.944;9.240;2023-02-24T14:49:18;9.20;99.90
6518;DHT22;3292;48.944;9.240;2023-02-24T14:51:48;9.30;99.90
6518;DHT22;3292;48.944;9.240;2023-02-24T14:54:22;9.30;99.90
6518;DHT22;3292;48.944;9.240;2023-02-24T14:56:51;9.30;99.90
6518;DHT22;3292;48.944;9.240;2023-02-24T14:59:22;9.30;99.90
6518;DHT22;3292;48.944;9.240;2023-02-24T15:01:54;9.20;99.90
6518;DHT22;3292;48.944;9.240;2023-02-24T15:04:29;9.20;99.90
6518;DHT22;3292;48.944;9.240;2023-02-24T15:06:57;9.20;99.90
6518;DHT22;3292;48.944;9.240;2023-02-24T15:09:32;9.20;99.90
6518;DHT22;3292;48.944;9.240;2023-02-24T15:12:07;9.20;99.90
6518;DHT22;3292;48.944;9.240;2023-02-24T15:14:34;9.20;99.90
6518;DHT22;3292;48.944;9.240;2023-02-24T15:17:08;9.10;99.90
6518;DHT22;3292;48.944;9.240;2023-02-24T15:19:37;9.20;99.90
6518;DHT22;3292;48.944;9.240;2023-02-24T15:22:21;9.10;99.90
6518;DHT22;3292;48.944;9.240;2023-02-24T15:24:51;9.10;99.90
6518;DHT22;3292;48.944;9.240;2023-02-24T15:27:21;9.10;99.90
6518;DHT22;3292;48.944;9.240;2023-02-24T15:30:00;9.10;99.90
6518;DHT22;3292;48.944;9.240;2023-02-24T15:32:30;9.10;99.90
6518;DHT22;3292;48.944;9.240;2023-02-24T15:34:58;9.20;99.90
6518;DHT22;3292;48.944;9.240;2023-02-24T15:37:28;9.20;99.90
6518;DHT22;3292;48.944;9.240;2023-02-24T15:40:04;9.20;99.90
6518;DHT22;3292;48.944;9.240;2023-02-24T15:42:32;9.20;99.90
6518;DHT22;3292;48.944;9.240;2023-02-24T15:45:01;9.20;99.90
6518;DHT22;3292;48.944;9.240;2023-02-24T15:47:40;9.20;99.90
6518;DHT22;3292;48.944;9.240;2023-02-24T15:50:08;9.10;99.90
6518;DHT22;3292;48.944;9.240;2023-02-24T15:52:36;9.10;99.90
6518;DHT22;3292;48.944;9.240;2023-02-24T15:55:06;9.10;99.90
6518;DHT22;3292;48.944;9.240;2023-02-24T15:57:33;9.10;99.90
6518;DHT22;3292;48.944;9.240;2023-02-24T16:00:00;9.10;99.90
6518;DHT22;3292;48.944;9.240;2023-02-24T16:02:27;9.10;99.90
6518;DHT22;3292;48.944;9.240;2023-02-24T16:04:54;9.10;99.90
6518;DHT22;3292;48.944;9.240;2023-02-24T16:07:23;9.10;99.90
6518;DHT22;3292;48.944;9.240;2023-02-24T16:09:53;9.10;99.90
6518;DHT22;3292;48.944;9.240;2023-02-24T16:12:24;9.10;99.90
6518;DHT22;3292;48.944;9.240;2023-02-24T16:14:53;9.10;99.90
6518;DHT22;3292;48.944;9.240;2023-02-24T16:17:30;9.10;99.90
6518;DHT22;3292;48.944;9.240;2023-02-24T16:19:58;9.10;99.90
6518;DHT22;3292;48.944;9.240;2023-02-24T16:22:25;9.10;99.90
6518;DHT22;3292;48.944;9.240;2023-02-24T16:24:52;9.10;99.90
6518;DHT22;3292;48.944;9.240;2023-02-24T16:27:21;9.00;99.90
6518;DHT22;3292;48.944;9.240;2023-02-24T16:29:50;9.00;99.90
6518;DHT22;3292;48.944;9.240;2023-02-24T16:32:18;9.00;99.90
6518;DHT22;3292;48.944;9.240;2023-02-24T16:34:46;8.90;99.90
6518;DHT22;3292;48.944;9.240;2023-02-24T16:37:16;8.90;99.90
6518;DHT22;3292;48.944;9.240;2023-02-24T16:39:44;8.90;99.90
6518;DHT22;3292;48.944;9.240;2023-02-24T16:42:11;8.90;99.90
6518;DHT22;3292;48.944;9.240;2023-02-24T16:44:40;8.90;99.90
6518;DHT22;3292;48.944;9.240;2023-02-24T16:47:11;8.80;99.90
6518;DHT22;3292;48.944;9.240;2023-02-24T16:49:41;8.80;99.90
6518;DHT22;3292;48.944;9.240;2023-02-24T16:52:10;8.80;99.90
6518;DHT22;3292;48.944;9.240;2023-02-24T16:54:37;8.80;99.90
6518;DHT22;3292;48.944;9.240;2023-02-24T16:57:03;8.80;99.90
6518;DHT22;3292;48.944;9.240;2023-02-24T16:59:30;8.80;99.90
6518;DHT22;3292;48.944;9.240;2023-02-24T17:01:58;8.80;99.90
6518;DHT22;3292;48.944;9.240;2023-02-24T17:04:26;8.80;99.90
6518;DHT22;3292;48.944;9.240;2023-02-24T17:06:53;8.80;99.90
6518;DHT22;3292;48.944;9.240;2023-02-24T17:09:21;8.70;99.90
6518;DHT22;3292;48.944;9.240;2023-02-24T17:11:48;8.70;99.90
6518;DHT22;3292;48.944;9.240;2023-02-24T17:14:16;8.70;99.90
6518;DHT22;3292;48.944;9.240;2023-02-24T17:16:44;8.70;99.90
6518;DHT22;3292;48.944;9.240;2023-02-24T17:19:12;8.60;99.90
6518;DHT22;3292;48.944;9.240;2023-02-24T17:21:43;8.60;99.90
6518;DHT22;3292;48.944;9.240;2023-02-24T17:24:13;8.60;99.90
6518;DHT22;3292;48.944;9.240;2023-02-24T17:26:40;8.60;99.90
6518;DHT22;3292;48.944;9.240;2023-02-24T17:29:07;8.60;99.90
6518;DHT22;3292;48.944;9.240;2023-02-24T17:31:34;8.60;99.90
6518;DHT22;3292;48.944;9.240;2023-02-24T17:34:01;8.50;99.90